Schedule Details


Flight Number: CTN367
Departure: Alexander The Great (LWSK) at 05:45
Arrival: Franjo Tudman (LDZA) at 07:05
Route: GOSTI P92 MAVAR UY400 RETRA UL604 BOSNA UL608 KOMAR L187 TEBLI

Weather Information
LWSK 211400Z 24004KT 210V320 9999 FEW050 32/12 Q1014 NOSIG
LDZA 211400Z 08004KT 010V170 CAVOK 32/16 Q1015 NOSIG
Schedule Frequency

Route Map